createdAt,value
2022-11-14T00:01:12.851Z,6.60
2022-11-14T00:03:40.770Z,5.30
2022-11-14T00:06:10.502Z,5.40
2022-11-14T00:08:38.343Z,5.37
2022-11-14T00:11:06.423Z,6.80
2022-11-14T00:13:34.266Z,5.07
2022-11-14T00:16:02.106Z,6.70
2022-11-14T00:18:30.207Z,6.13
2022-11-14T00:20:58.310Z,5.90
2022-11-14T00:23:27.448Z,4.97
2022-11-14T00:25:55.282Z,7.10
2022-11-14T00:28:23.120Z,5.80
2022-11-14T00:30:50.962Z,6.07
2022-11-14T00:33:21.514Z,6.80
2022-11-14T00:35:53.800Z,8.27
2022-11-14T00:38:21.916Z,9.80
2022-11-14T00:40:51.138Z,7.73
2022-11-14T00:43:19.096Z,6.53
2022-11-14T00:45:47.909Z,6.00
2022-11-14T00:48:15.802Z,5.60
2022-11-14T00:50:44.297Z,6.23
2022-11-14T00:53:12.143Z,7.13
2022-11-14T00:55:40.125Z,6.17
2022-11-14T00:58:09.325Z,6.53
2022-11-14T01:00:37.814Z,6.53
2022-11-14T01:03:05.712Z,7.43
2022-11-14T01:05:33.519Z,8.00
2022-11-14T01:08:01.355Z,7.03
2022-11-14T01:10:29.427Z,6.53
2022-11-14T01:12:57.235Z,8.13
2022-11-14T01:15:26.695Z,8.67
2022-11-14T01:17:54.557Z,6.67
2022-11-14T01:20:22.500Z,7.57
2022-11-14T01:22:50.346Z,7.47
2022-11-14T01:25:18.298Z,6.60
2022-11-14T01:27:46.110Z,7.23
2022-11-14T01:30:14.979Z,6.60
2022-11-14T01:32:44.437Z,8.90
2022-11-14T01:35:12.280Z,8.37
2022-11-14T01:37:40.104Z,6.60
2022-11-14T01:40:09.114Z,5.87
2022-11-14T01:42:36.923Z,6.23
2022-11-14T01:45:37.769Z,8.53
2022-11-14T01:48:19.009Z,7.63
2022-11-14T01:50:47.274Z,7.83
2022-11-14T01:53:15.093Z,7.43
2022-11-14T01:55:42.913Z,7.23
2022-11-14T01:58:12.475Z,8.00
2022-11-14T02:00:40.554Z,8.43
2022-11-14T02:03:10.045Z,7.93
2022-11-14T02:05:38.680Z,9.53
2022-11-14T02:08:07.735Z,6.60
2022-11-14T02:10:35.566Z,8.60
2022-11-14T02:13:03.534Z,9.47
2022-11-14T02:15:31.387Z,7.10
2022-11-14T02:17:59.838Z,7.43
2022-11-14T02:20:32.548Z,6.30
2022-11-14T02:23:01.108Z,7.50
2022-11-14T02:25:30.076Z,6.70
2022-11-14T02:28:00.089Z,7.00
2022-11-14T02:30:29.208Z,9.23
2022-11-14T02:33:10.402Z,7.40
2022-11-14T02:35:41.517Z,9.57
2022-11-14T02:38:10.407Z,8.17
2022-11-14T02:40:39.407Z,10.03
2022-11-14T02:43:08.299Z,7.17
2022-11-14T02:45:37.377Z,6.33
2022-11-14T02:48:06.588Z,9.73
2022-11-14T02:50:35.453Z,10.03
2022-11-14T02:53:05.710Z,7.53
2022-11-14T02:55:34.598Z,9.60
2022-11-14T02:58:03.447Z,8.70
2022-11-14T03:00:31.929Z,9.73
2022-11-14T03:03:00.842Z,7.40
2022-11-14T03:05:29.716Z,8.30
2022-11-14T03:07:58.350Z,10.53
2022-11-14T03:10:28.195Z,8.50
2022-11-14T03:12:57.176Z,8.60
2022-11-14T03:15:26.250Z,9.07
2022-11-14T03:17:54.633Z,11.10
2022-11-14T03:20:23.025Z,7.23
2022-11-14T03:22:51.505Z,7.23
2022-11-14T03:25:19.977Z,8.30
2022-11-14T03:27:50.059Z,9.60
2022-11-14T03:30:18.773Z,9.30
2022-11-14T03:32:47.291Z,8.97
2022-11-14T03:35:15.738Z,9.60
2022-11-14T03:37:44.119Z,7.67
2022-11-14T03:40:12.948Z,8.00
2022-11-14T03:42:41.181Z,7.90
2022-11-14T03:45:12.393Z,9.40
2022-11-14T03:47:40.208Z,10.90
2022-11-14T03:50:09.200Z,8.30
2022-11-14T03:52:37.618Z,9.33
2022-11-14T03:55:06.385Z,8.63
2022-11-14T03:57:34.787Z,10.33
2022-11-14T04:00:03.266Z,10.40
2022-11-14T04:02:33.072Z,10.10
2022-11-14T04:05:00.932Z,9.67
2022-11-14T04:07:29.495Z,9.80
2022-11-14T04:09:57.986Z,9.00
2022-11-14T04:12:26.501Z,9.23
2022-11-14T04:14:54.892Z,9.27
2022-11-14T04:17:23.344Z,9.70
2022-11-14T04:19:53.093Z,9.90
2022-11-14T04:22:21.451Z,9.77
2022-11-14T04:24:49.263Z,10.70
2022-11-14T04:27:17.603Z,8.37
2022-11-14T04:29:45.898Z,9.60
2022-11-14T04:32:14.181Z,9.07
2022-11-14T04:34:42.615Z,10.50
2022-11-14T04:37:12.653Z,9.60
2022-11-14T04:39:41.162Z,8.23
2022-11-14T04:42:09.617Z,9.10
2022-11-14T04:44:38.095Z,9.33
2022-11-14T04:47:05.908Z,9.83
2022-11-14T04:49:34.346Z,11.03
2022-11-14T04:52:02.827Z,9.50
2022-11-14T04:54:31.976Z,8.77
2022-11-14T04:57:00.452Z,7.87
2022-11-14T04:59:28.980Z,8.63
2022-11-14T05:01:57.422Z,8.13
2022-11-14T05:04:25.916Z,7.17
2022-11-14T05:06:54.456Z,8.50
2022-11-14T05:09:23.007Z,5.90
2022-11-14T05:11:53.043Z,6.60
2022-11-14T05:14:20.928Z,7.60
2022-11-14T05:16:48.779Z,8.57
2022-11-14T05:19:16.730Z,7.83
2022-11-14T05:21:44.604Z,8.03
2022-11-14T05:24:12.473Z,7.37
2022-11-14T05:26:40.397Z,8.20
2022-11-14T05:29:09.554Z,9.40
2022-11-14T05:31:37.382Z,8.67
2022-11-14T05:34:05.291Z,7.80
2022-11-14T05:36:33.119Z,9.00
2022-11-14T05:39:01.109Z,10.20
2022-11-14T05:41:28.961Z,9.27
2022-11-14T05:43:57.510Z,11.00
2022-11-14T05:46:26.702Z,8.53
2022-11-14T05:48:54.517Z,6.47
2022-11-14T05:51:22.443Z,11.97
2022-11-14T05:53:50.374Z,9.63
2022-11-14T05:56:18.231Z,9.57
2022-11-14T05:58:46.058Z,8.00
2022-11-14T06:01:16.392Z,11.10
2022-11-14T06:03:46.959Z,6.73
2022-11-14T06:06:16.444Z,6.73
2022-11-14T06:08:45.044Z,8.30
2022-11-14T06:11:14.850Z,7.10
2022-11-14T06:13:43.110Z,7.90
2022-11-14T06:16:12.030Z,6.93
2022-11-14T06:18:40.833Z,7.13
2022-11-14T06:21:13.043Z,7.70
2022-11-14T06:23:41.552Z,8.40
2022-11-14T06:26:12.801Z,5.03
2022-11-14T06:28:40.610Z,8.03
2022-11-14T06:31:08.558Z,6.77
2022-11-14T06:33:38.254Z,7.07
2022-11-14T06:36:08.171Z,6.80
2022-11-14T06:38:38.604Z,6.43
2022-11-14T06:41:07.407Z,6.30
2022-11-14T06:43:35.655Z,6.37
2022-11-14T06:46:04.529Z,6.80
2022-11-14T06:48:33.231Z,7.80
2022-11-14T06:51:02.290Z,7.70
2022-11-14T06:53:32.808Z,7.13
2022-11-14T06:56:03.348Z,7.77
2022-11-14T06:58:33.159Z,9.20
2022-11-14T07:01:05.137Z,6.77
2022-11-14T07:03:33.620Z,7.07
2022-11-14T07:06:01.885Z,6.80
2022-11-14T07:08:30.523Z,7.43
2022-11-14T07:11:04.608Z,8.37
2022-11-14T07:13:33.282Z,7.00
2022-11-14T07:16:01.358Z,7.27
2022-11-14T07:18:31.391Z,9.77
2022-11-14T07:21:00.694Z,8.93
2022-11-14T07:23:29.013Z,7.87
2022-11-14T07:25:56.887Z,7.57
2022-11-14T07:28:26.068Z,10.00
2022-11-14T07:30:53.961Z,11.30
2022-11-14T07:33:21.809Z,9.73
2022-11-14T07:35:49.623Z,8.83
2022-11-14T07:38:17.485Z,9.87
2022-11-14T07:40:59.064Z,9.93
2022-11-14T07:43:29.463Z,7.30
2022-11-14T07:46:00.732Z,9.03
2022-11-14T07:48:29.044Z,11.63
2022-11-14T07:51:00.312Z,7.43
2022-11-14T07:53:28.423Z,9.40
2022-11-14T07:55:56.545Z,9.53
2022-11-14T07:58:24.759Z,10.87
2022-11-14T08:00:54.097Z,8.30
2022-11-14T08:03:21.990Z,12.57
2022-11-14T08:05:49.832Z,8.20
2022-11-14T08:08:17.695Z,10.17
2022-11-14T08:10:45.514Z,11.67
2022-11-14T08:16:10.797Z,10.27
2022-11-14T08:18:40.165Z,9.37
2022-11-14T08:21:08.481Z,8.23
2022-11-14T08:23:36.481Z,11.27
2022-11-14T08:26:04.547Z,10.70
2022-11-14T08:28:32.786Z,8.27
2022-11-14T08:31:02.649Z,8.43
2022-11-14T08:33:30.991Z,8.57
2022-11-14T08:36:01.904Z,8.80
2022-11-14T08:38:30.011Z,10.43
2022-11-14T08:40:59.563Z,12.00
2022-11-14T08:43:27.961Z,9.83
2022-11-14T08:46:01.468Z,8.37
2022-11-14T08:48:32.782Z,10.53
2022-11-14T08:51:04.647Z,17.73
2022-11-14T08:53:32.811Z,12.03
2022-11-14T08:56:00.701Z,11.87
2022-11-14T08:58:31.134Z,11.87
2022-11-14T09:01:04.328Z,10.77
2022-11-14T09:03:33.846Z,12.33
2022-11-14T09:06:03.513Z,9.33
2022-11-14T09:08:32.479Z,15.50
2022-11-14T09:11:09.257Z,11.00
2022-11-14T09:13:37.931Z,9.47
2022-11-14T09:16:06.343Z,11.97
2022-11-14T09:18:35.546Z,10.20
2022-11-14T09:21:04.630Z,9.90
2022-11-14T09:23:33.061Z,9.53
2022-11-14T09:26:05.220Z,8.77
2022-11-14T09:28:33.401Z,10.87
2022-11-14T09:31:02.408Z,11.30
2022-11-14T09:33:30.586Z,13.73
2022-11-14T09:36:00.726Z,11.00
2022-11-14T09:38:30.867Z,11.83
2022-11-14T09:41:23.191Z,12.57
2022-11-14T09:44:19.164Z,10.70
2022-11-14T09:46:53.533Z,11.17
2022-11-14T09:49:28.433Z,9.50
2022-11-14T09:52:02.169Z,12.73
2022-11-14T09:54:39.567Z,10.07
2022-11-14T09:57:16.225Z,10.37
2022-11-14T09:59:44.641Z,16.37
2022-11-14T10:02:28.325Z,14.57
2022-11-14T10:05:09.990Z,10.80
2022-11-14T10:07:52.721Z,11.90
2022-11-14T10:10:39.023Z,13.30
2022-11-14T10:13:18.468Z,11.57
2022-11-14T10:15:53.674Z,14.70
2022-11-14T10:18:37.507Z,15.60
2022-11-14T10:21:13.496Z,14.57
2022-11-14T10:23:51.820Z,13.10
2022-11-14T10:26:29.962Z,12.93
2022-11-14T10:29:21.954Z,18.23
2022-11-14T10:31:58.755Z,16.90
2022-11-14T10:34:31.815Z,16.97
2022-11-14T10:37:06.394Z,16.73
2022-11-14T10:39:41.090Z,16.47
2022-11-14T10:42:15.375Z,13.90
2022-11-14T10:44:50.491Z,19.37
2022-11-14T10:47:22.439Z,13.60
2022-11-14T10:49:55.196Z,13.27
2022-11-14T10:52:33.023Z,14.47
2022-11-14T10:55:07.811Z,14.43
2022-11-14T10:57:35.752Z,15.57
2022-11-14T11:00:07.376Z,14.03
2022-11-14T11:02:49.872Z,14.23
2022-11-14T11:05:19.635Z,15.20
2022-11-14T11:08:41.856Z,17.87
2022-11-14T11:11:17.919Z,14.93
2022-11-14T11:13:54.110Z,12.37
2022-11-14T11:16:24.579Z,12.20
2022-11-14T11:18:53.032Z,11.13
2022-11-14T11:21:22.592Z,7.83
2022-11-14T11:23:53.182Z,6.03
2022-11-14T11:26:25.122Z,4.83
2022-11-14T11:29:07.573Z,4.87
2022-11-14T11:31:52.753Z,5.70
2022-11-14T11:34:25.848Z,9.37
2022-11-14T11:36:58.968Z,7.00
2022-11-14T11:39:30.338Z,4.20
2022-11-14T11:42:10.481Z,5.10
2022-11-14T11:44:45.228Z,8.07
2022-11-14T11:47:17.126Z,4.40
2022-11-14T11:49:53.346Z,7.70
2022-11-14T11:52:31.455Z,5.00
2022-11-14T11:55:04.504Z,6.23
2022-11-14T11:57:37.824Z,6.00
2022-11-14T12:00:09.304Z,6.50
2022-11-14T12:02:46.329Z,6.13
2022-11-14T12:05:19.672Z,6.53
2022-11-14T12:07:54.151Z,7.67
2022-11-14T12:10:25.932Z,5.33
2022-11-14T12:13:25.790Z,4.33
2022-11-14T12:16:07.692Z,7.47
2022-11-14T12:18:55.068Z,6.23
2022-11-14T12:21:46.474Z,6.07
2022-11-14T12:24:55.762Z,8.13
2022-11-14T12:27:35.564Z,5.33
2022-11-14T12:30:18.980Z,5.80
2022-11-14T12:32:51.004Z,5.47
2022-11-14T12:35:23.611Z,9.07
2022-11-14T12:37:55.853Z,7.07
2022-11-14T12:40:30.009Z,10.40
2022-11-14T12:42:58.821Z,6.03
2022-11-14T12:46:02.823Z,10.23
2022-11-14T12:48:36.570Z,8.80
2022-11-14T12:51:07.387Z,5.83
2022-11-14T12:53:42.085Z,8.00
2022-11-14T12:56:43.778Z,6.27
2022-11-14T12:59:29.491Z,7.80
2022-11-14T13:02:25.051Z,8.80
2022-11-14T13:05:14.413Z,9.27
2022-11-14T13:07:50.038Z,7.43
2022-11-14T13:10:27.703Z,8.53
2022-11-14T13:13:20.607Z,10.33
2022-11-14T13:16:08.981Z,10.97
2022-11-14T13:19:09.295Z,11.53
2022-11-14T13:21:49.304Z,10.57
2022-11-14T13:24:18.591Z,8.23
2022-11-14T13:26:51.263Z,9.73
2022-11-14T13:29:47.717Z,7.50
2022-11-14T13:33:03.909Z,14.27
2022-11-14T13:35:50.906Z,8.37
2022-11-14T13:38:47.242Z,8.80
2022-11-14T13:41:50.837Z,5.50
2022-11-14T13:45:06.303Z,10.57
2022-11-14T13:48:01.368Z,6.43
2022-11-14T13:50:32.961Z,14.37
2022-11-14T13:53:02.773Z,7.30
2022-11-14T13:55:39.118Z,7.93
2022-11-14T13:58:32.487Z,7.20
2022-11-14T14:01:10.971Z,5.60
2022-11-14T14:03:57.055Z,3.23
2022-11-14T14:06:37.479Z,4.20
2022-11-14T14:09:16.478Z,4.00
2022-11-14T14:11:58.592Z,2.83
2022-11-14T14:14:49.833Z,4.00
2022-11-14T14:17:24.690Z,4.27
2022-11-14T14:20:05.475Z,6.23
2022-11-14T14:22:42.951Z,3.03
2022-11-14T14:25:19.937Z,3.30
2022-11-14T14:27:58.059Z,4.53
2022-11-14T14:30:26.228Z,3.77
2022-11-14T14:33:12.982Z,4.97
2022-11-14T14:35:50.528Z,5.67
2022-11-14T14:38:25.887Z,8.80
2022-11-14T14:40:56.793Z,3.90
2022-11-14T14:43:29.739Z,4.70
2022-11-14T14:45:57.963Z,4.57
2022-11-14T14:48:28.461Z,5.97
2022-11-14T14:50:58.230Z,4.93
2022-11-14T14:53:28.188Z,6.57
2022-11-14T14:55:59.391Z,6.13
2022-11-14T14:58:30.613Z,10.40
2022-11-14T15:01:01.518Z,9.93
2022-11-14T15:03:36.995Z,10.27
2022-11-14T15:06:07.592Z,8.17
2022-11-14T15:08:39.325Z,9.23
2022-11-14T15:11:08.927Z,12.20
2022-11-14T15:13:38.598Z,12.13
2022-11-14T15:16:07.648Z,14.03
2022-11-14T15:18:36.297Z,14.57
2022-11-14T15:21:13.438Z,16.00
2022-11-14T15:23:41.444Z,14.60
2022-11-14T15:26:16.675Z,15.33
2022-11-14T15:28:44.777Z,7.00
2022-11-14T15:31:20.924Z,9.67
2022-11-14T15:34:02.535Z,12.20
2022-11-14T15:36:30.481Z,6.87
2022-11-14T15:39:03.572Z,8.07
2022-11-14T15:41:34.109Z,6.60
2022-11-14T15:44:05.586Z,9.53
2022-11-14T15:46:47.209Z,7.90
2022-11-14T15:49:23.619Z,7.30
2022-11-14T15:51:55.453Z,7.40
2022-11-14T15:54:26.091Z,7.47
2022-11-14T15:56:57.005Z,6.80
2022-11-14T15:59:25.739Z,6.57
2022-11-14T16:01:57.503Z,5.73
2022-11-14T16:04:30.388Z,3.73
2022-11-14T16:06:58.264Z,3.93
2022-11-14T16:09:26.181Z,3.80
2022-11-14T16:11:55.354Z,4.30
2022-11-14T16:14:23.194Z,4.93
2022-11-14T16:16:51.014Z,4.37
2022-11-14T16:19:18.862Z,6.80
2022-11-14T16:21:46.685Z,5.03
2022-11-14T16:24:19.727Z,3.90
2022-11-14T16:26:48.501Z,3.20
2022-11-14T16:29:17.771Z,6.23
2022-11-14T16:31:45.634Z,5.40
2022-11-14T16:34:19.025Z,5.50
2022-11-14T16:36:48.541Z,5.17
2022-11-14T16:39:16.414Z,4.07
2022-11-14T16:41:44.282Z,4.60
2022-11-14T16:44:16.668Z,6.10
2022-11-14T16:46:46.394Z,5.93
2022-11-14T16:49:15.808Z,5.10
2022-11-14T16:51:48.984Z,5.17
2022-11-14T16:54:18.017Z,4.70
2022-11-14T16:56:46.096Z,4.20
2022-11-14T16:59:14.292Z,4.43
2022-11-14T17:01:42.821Z,3.47
2022-11-14T17:04:12.583Z,4.63
2022-11-14T17:06:40.449Z,4.83
2022-11-14T17:09:08.268Z,3.60
2022-11-14T17:11:36.106Z,3.67
2022-11-14T17:14:03.972Z,3.80
2022-11-14T17:16:31.805Z,3.23
2022-11-14T17:18:59.854Z,5.07
2022-11-14T17:21:29.533Z,2.30
2022-11-14T17:23:58.159Z,3.40
2022-11-14T17:26:26.001Z,3.20
2022-11-14T17:28:54.031Z,5.07
2022-11-14T17:31:22.179Z,4.00
2022-11-14T17:33:53.643Z,4.50
2022-11-14T17:36:22.590Z,3.27
2022-11-14T17:38:51.875Z,3.50
2022-11-14T17:41:20.299Z,3.77
2022-11-14T17:43:48.291Z,3.63
2022-11-14T17:46:16.517Z,3.00
2022-11-14T17:48:44.889Z,2.70
2022-11-14T17:51:14.518Z,2.60
2022-11-14T17:53:42.698Z,3.00
2022-11-14T17:56:15.093Z,3.00
2022-11-14T17:58:43.270Z,3.20
2022-11-14T18:01:12.066Z,4.10
2022-11-14T18:03:40.136Z,2.80
2022-11-14T18:06:09.294Z,2.47
2022-11-14T18:08:37.833Z,3.23
2022-11-14T18:11:07.763Z,4.00
2022-11-14T18:13:37.194Z,3.13
2022-11-14T18:16:07.192Z,2.43
2022-11-14T18:18:36.576Z,3.40
2022-11-14T18:21:08.511Z,2.50
2022-11-14T18:23:38.514Z,5.17
2022-11-14T18:26:13.610Z,4.43
2022-11-14T18:28:43.583Z,5.70
2022-11-14T18:31:13.345Z,2.63
2022-11-14T18:33:42.107Z,3.20
2022-11-14T18:36:13.305Z,3.43
2022-11-14T18:38:41.613Z,3.10
2022-11-14T18:41:11.509Z,5.30
2022-11-14T18:43:39.396Z,6.33
2022-11-14T18:46:10.667Z,3.87
2022-11-14T18:48:40.889Z,5.70
2022-11-14T18:51:12.015Z,3.83
2022-11-14T18:53:40.053Z,3.53
2022-11-14T18:56:10.051Z,3.50
2022-11-14T18:58:39.751Z,3.90
2022-11-14T19:01:13.989Z,4.20
2022-11-14T19:03:42.153Z,6.57
2022-11-14T19:06:12.284Z,3.43
2022-11-14T19:08:40.681Z,4.73
2022-11-14T19:11:30.681Z,7.03
2022-11-14T19:14:01.472Z,3.90
2022-11-14T19:16:31.520Z,3.47
2022-11-14T19:18:59.558Z,4.10
2022-11-14T19:21:27.605Z,4.80
2022-11-14T19:23:55.791Z,5.53
2022-11-14T19:26:24.241Z,3.70
2022-11-14T19:28:52.286Z,3.73
2022-11-14T19:31:21.422Z,5.03
2022-11-14T19:33:50.845Z,3.93
2022-11-14T19:36:44.982Z,3.13
2022-11-14T19:39:08.585Z,3.50
2022-11-14T19:41:36.384Z,3.30
2022-11-14T19:44:04.654Z,3.23
2022-11-14T19:46:32.503Z,5.20
2022-11-14T19:49:02.699Z,4.80
2022-11-14T19:51:31.645Z,3.70
2022-11-14T19:54:00.686Z,3.47
2022-11-14T19:56:28.787Z,4.47
2022-11-14T19:58:57.229Z,5.90
2022-11-14T20:01:26.873Z,6.37
2022-11-14T20:03:57.089Z,6.43
2022-11-14T20:06:28.097Z,7.63
2022-11-14T20:08:57.178Z,6.60
2022-11-14T20:11:27.678Z,7.60
2022-11-14T20:13:56.731Z,7.70
2022-11-14T20:16:26.510Z,7.83
2022-11-14T20:18:58.788Z,5.80
2022-11-14T20:21:30.682Z,7.70
2022-11-14T20:23:58.974Z,4.80
2022-11-14T20:26:27.646Z,4.87
2022-11-14T20:28:55.499Z,6.87
2022-11-14T20:31:25.581Z,6.13
2022-11-14T20:33:54.671Z,8.07
2022-11-14T20:36:25.048Z,6.40
2022-11-14T20:38:54.399Z,7.93
2022-11-14T20:41:22.732Z,8.40
2022-11-14T20:43:50.608Z,8.37
2022-11-14T20:46:20.007Z,8.53
2022-11-14T20:48:48.478Z,8.27
2022-11-14T20:51:18.332Z,8.53
2022-11-14T20:53:46.265Z,6.70
2022-11-14T20:56:17.003Z,7.97
2022-11-14T20:58:47.101Z,5.50
2022-11-14T21:01:15.647Z,7.43
2022-11-14T21:03:43.648Z,7.77
2022-11-14T21:06:13.007Z,7.53
2022-11-14T21:08:41.557Z,6.00
2022-11-14T21:11:12.830Z,8.30
2022-11-14T21:13:57.198Z,6.60
2022-11-14T21:16:26.947Z,8.57
2022-11-14T21:18:55.714Z,6.23
2022-11-14T21:21:24.893Z,9.33
2022-11-14T21:23:52.743Z,7.43
2022-11-14T21:26:22.414Z,9.93
2022-11-14T21:28:54.049Z,10.00
2022-11-14T21:31:23.988Z,9.83
2022-11-14T21:33:55.109Z,14.60
2022-11-14T21:36:43.786Z,7.23
2022-11-14T21:39:14.686Z,6.60
2022-11-14T21:41:43.934Z,10.53
2022-11-14T21:44:16.335Z,7.83
2022-11-14T21:46:46.211Z,8.37
2022-11-14T21:49:14.250Z,7.43
2022-11-14T21:51:42.091Z,9.33
2022-11-14T21:54:10.379Z,6.80
2022-11-14T21:56:38.678Z,8.60
2022-11-14T21:59:15.612Z,8.57
2022-11-14T22:02:03.801Z,9.37
2022-11-14T22:04:32.377Z,7.23
2022-11-14T22:07:02.062Z,9.47
2022-11-14T22:09:30.554Z,6.43
2022-11-14T22:11:58.786Z,4.50
2022-11-14T22:14:29.196Z,5.77
2022-11-14T22:16:57.780Z,6.40
2022-11-14T22:19:25.660Z,5.60
2022-11-14T22:21:54.178Z,5.90
2022-11-14T22:24:22.270Z,5.07
2022-11-14T22:26:50.126Z,6.33
2022-11-14T22:29:17.949Z,7.43
2022-11-14T22:31:47.151Z,7.30
2022-11-14T22:34:15.093Z,5.63
2022-11-14T22:36:42.932Z,8.77
2022-11-14T22:39:10.775Z,7.17
2022-11-14T22:41:38.897Z,6.10
2022-11-14T22:44:07.558Z,7.87
2022-11-14T22:46:35.367Z,8.00
2022-11-14T22:49:04.730Z,5.70
2022-11-14T22:51:32.759Z,6.07
2022-11-14T22:54:00.611Z,10.30
2022-11-14T22:56:29.995Z,10.80
2022-11-14T22:59:00.224Z,7.70
2022-11-14T23:01:29.598Z,6.07
2022-11-14T23:03:59.336Z,7.27
2022-11-14T23:06:29.191Z,9.33
2022-11-14T23:08:57.362Z,7.97
2022-11-14T23:11:27.385Z,6.07
2022-11-14T23:13:56.511Z,8.10
2022-11-14T23:16:28.278Z,5.33
2022-11-14T23:18:57.752Z,7.30
2022-11-14T23:21:29.100Z,6.63
2022-11-14T23:23:58.097Z,8.20
2022-11-14T23:26:27.252Z,6.07
2022-11-14T23:28:55.545Z,6.70
2022-11-14T23:31:24.502Z,7.07
2022-11-14T23:33:53.601Z,5.83
2022-11-14T23:36:21.983Z,6.27
2022-11-14T23:38:52.859Z,7.77
2022-11-14T23:41:22.734Z,7.07
2022-11-14T23:43:50.573Z,6.47
2022-11-14T23:46:18.581Z,5.87
2022-11-14T23:48:46.444Z,4.37
2022-11-14T23:51:14.437Z,5.70
2022-11-14T23:53:42.823Z,7.00
2022-11-14T23:56:14.356Z,7.17
2022-11-14T23:58:42.638Z,6.60
